createdAt,value
2018-09-17T00:00:04.058Z,99039.53
2018-09-17T00:02:32.515Z,99037.77
2018-09-17T00:05:01.097Z,99036.77
2018-09-17T00:07:29.582Z,99035.84
2018-09-17T00:09:58.405Z,99032.38
2018-09-17T00:12:26.941Z,99038.14
2018-09-17T00:14:55.410Z,99035.15
2018-09-17T00:17:23.931Z,99037.34
2018-09-17T00:19:52.376Z,99034.73
2018-09-17T00:22:20.920Z,99028.42
2018-09-17T00:24:49.350Z,99026.86
2018-09-17T00:27:17.865Z,99022.19
2018-09-17T00:29:46.306Z,99020.75
2018-09-17T00:32:15.722Z,99020.75
2018-09-17T00:34:44.266Z,99016.25
2018-09-17T00:37:12.673Z,99009.44
2018-09-17T00:39:41.196Z,99003.63
2018-09-17T00:42:09.657Z,99000.63
2018-09-17T00:44:38.146Z,98998.52
2018-09-17T00:47:06.630Z,98997.42
2018-09-17T00:49:35.109Z,98994.93
2018-09-17T00:52:03.498Z,99000.09
2018-09-17T00:54:32.057Z,98995.13
2018-09-17T00:57:00.824Z,98999.39
2018-09-17T00:59:29.366Z,98996.11
2018-09-17T01:01:57.878Z,99002.11
2018-09-17T01:04:26.667Z,99004.23
2018-09-17T01:06:55.077Z,99006.61
2018-09-17T01:09:28.817Z,99014.40
2018-09-17T01:11:57.296Z,99010.05
2018-09-17T01:14:25.765Z,99011.17
2018-09-17T01:16:54.425Z,99012.45
2018-09-17T01:19:22.949Z,99010.95
2018-09-17T01:21:51.514Z,99006.20
2018-09-17T01:24:20.017Z,99009.67
2018-09-17T01:26:48.574Z,99006.36
2018-09-17T01:29:17.087Z,99006.36
2018-09-17T01:31:45.521Z,99000.53
2018-09-17T01:34:14.031Z,98999.19
2018-09-17T01:36:42.478Z,99000.53
2018-09-17T01:39:12.097Z,99001.26
2018-09-17T01:41:40.589Z,98994.53
2018-09-17T01:44:09.289Z,98992.41
2018-09-17T01:46:38.033Z,98991.30
2018-09-17T01:49:06.735Z,99000.86
2018-09-17T01:51:35.273Z,98999.70
2018-09-17T01:54:03.692Z,99004.29
2018-09-17T01:56:32.193Z,99001.88
2018-09-17T01:59:00.889Z,99004.47
2018-09-17T02:01:29.389Z,99005.47
2018-09-17T02:03:57.870Z,99003.50
2018-09-17T02:06:26.370Z,99002.60
2018-09-17T02:08:54.830Z,99003.50
2018-09-17T02:11:23.286Z,99001.95
2018-09-17T02:13:51.786Z,98993.00
2018-09-17T02:16:20.273Z,98992.66
2018-09-17T02:18:48.764Z,98992.31
2018-09-17T02:21:17.237Z,98985.77
2018-09-17T02:23:45.671Z,98992.84
2018-09-17T02:26:14.269Z,98984.48
2018-09-17T02:28:42.742Z,98990.70
2018-09-17T02:31:11.254Z,99000.72
2018-09-17T02:33:39.717Z,98995.45
2018-09-17T02:36:08.205Z,98999.03
2018-09-17T02:38:36.677Z,98998.60
2018-09-17T02:41:05.218Z,99002.23
2018-09-17T02:43:33.633Z,99004.41
2018-09-17T02:46:02.154Z,99006.87
2018-09-17T02:48:30.577Z,99010.45
2018-09-17T02:50:59.274Z,99008.23
2018-09-17T02:53:27.955Z,99013.80
2018-09-17T02:55:56.374Z,99011.86
2018-09-17T02:58:24.828Z,99009.09
2018-09-17T03:00:53.417Z,99012.70
2018-09-17T03:03:21.898Z,99015.93
2018-09-17T03:05:53.867Z,99016.55
2018-09-17T03:08:22.346Z,99010.85
2018-09-17T03:10:50.846Z,99014.53
2018-09-17T03:13:19.365Z,99019.79
2018-09-17T03:15:55.062Z,99021.05
2018-09-17T03:18:36.126Z,99017.30
2018-09-17T03:21:05.849Z,99021.83
2018-09-17T03:23:36.050Z,99021.83
2018-09-17T03:26:04.930Z,99016.08
2018-09-17T03:28:33.411Z,99029.99
2018-09-17T03:31:01.994Z,99031.95
2018-09-17T03:33:30.614Z,99037.85
2018-09-17T03:35:59.285Z,99028.92
2018-09-17T03:38:34.946Z,99030.84
2018-09-17T03:41:05.245Z,99031.95
2018-09-17T03:43:34.680Z,99032.83
2018-09-17T03:46:03.190Z,99033.97
2018-09-17T03:48:32.737Z,99032.63
2018-09-17T03:51:02.050Z,99039.95
2018-09-17T03:53:30.882Z,99030.94
2018-09-17T03:55:59.764Z,99035.55
2018-09-17T03:58:28.947Z,99035.66
2018-09-17T04:00:57.504Z,99037.88
2018-09-17T04:03:26.185Z,99032.75
2018-09-17T04:05:54.717Z,99042.49
2018-09-17T04:08:23.206Z,99048.85
2018-09-17T04:10:51.722Z,99043.11
2018-09-17T04:13:20.265Z,99045.29
2018-09-17T04:15:48.789Z,99049.81
2018-09-17T04:18:17.237Z,99041.61
2018-09-17T04:20:46.295Z,99042.72
2018-09-17T04:23:18.945Z,99043.48
2018-09-17T04:25:47.489Z,99035.89
2018-09-17T04:28:15.986Z,99038.61
2018-09-17T04:30:44.429Z,99032.78
2018-09-17T04:33:13.005Z,99041.44
2018-09-17T04:35:41.493Z,99040.86
2018-09-17T04:38:09.996Z,99039.55
2018-09-17T04:40:38.442Z,99036.66
2018-09-17T04:43:06.958Z,99037.53
2018-09-17T04:45:35.406Z,99039.74
2018-09-17T04:48:03.927Z,99050.16
2018-09-17T04:50:32.458Z,99050.16
2018-09-17T04:53:01.057Z,99054.56
2018-09-17T04:55:30.001Z,99056.73
2018-09-17T04:57:58.503Z,99058.42
2018-09-17T05:00:27.057Z,99055.27
2018-09-17T05:02:55.562Z,99055.38
2018-09-17T05:05:24.006Z,99047.83
2018-09-17T05:07:52.462Z,99057.45
2018-09-17T05:10:20.966Z,99058.02
2018-09-17T05:12:49.772Z,99053.61
2018-09-17T05:15:18.318Z,99050.89
2018-09-17T05:17:46.869Z,99059.91
2018-09-17T05:20:15.305Z,99057.72
2018-09-17T05:22:43.757Z,99058.33
2018-09-17T05:25:12.272Z,99061.28
2018-09-17T05:27:40.723Z,99067.64
2018-09-17T05:30:09.225Z,99071.66
2018-09-17T05:32:37.750Z,99072.77
2018-09-17T05:35:06.289Z,99066.59
2018-09-17T05:37:34.761Z,99065.72
2018-09-17T05:40:03.319Z,99060.92
2018-09-17T05:42:31.798Z,99068.86
2018-09-17T05:45:00.386Z,99068.98
2018-09-17T05:47:28.885Z,99078.78
2018-09-17T05:49:57.403Z,99074.38
2018-09-17T05:52:25.842Z,99079.51
2018-09-17T05:54:54.349Z,99077.14
2018-09-17T05:57:22.811Z,99078.48
2018-09-17T05:59:51.321Z,99074.68
2018-09-17T06:02:19.778Z,99079.05
2018-09-17T06:04:48.885Z,99074.86
2018-09-17T06:07:17.365Z,99075.39
2018-09-17T06:09:45.909Z,99076.30
2018-09-17T06:12:14.312Z,99071.59
2018-09-17T06:14:42.885Z,99070.25
2018-09-17T06:17:11.350Z,99075.17
2018-09-17T06:19:39.771Z,99069.97
2018-09-17T06:22:08.261Z,99072.20
2018-09-17T06:24:36.754Z,99071.01
2018-09-17T06:27:05.277Z,99068.48
2018-09-17T06:29:33.717Z,99070.14
2018-09-17T06:32:02.186Z,99073.30
2018-09-17T06:34:30.832Z,99069.36
2018-09-17T06:36:59.461Z,99062.99
2018-09-17T06:39:27.957Z,99062.84
2018-09-17T06:41:56.582Z,99063.78
2018-09-17T06:44:24.964Z,99063.98
2018-09-17T06:46:53.442Z,99061.00
2018-09-17T06:49:21.976Z,99065.38
2018-09-17T06:51:50.766Z,99064.22
2018-09-17T06:54:19.229Z,99069.42
2018-09-17T06:56:47.757Z,99070.28
2018-09-17T06:59:16.213Z,99068.53
2018-09-17T07:01:44.738Z,99063.48
2018-09-17T07:04:13.150Z,99060.78
2018-09-17T07:06:41.662Z,99065.83
2018-09-17T07:09:11.539Z,99075.77
2018-09-17T07:11:40.051Z,99072.88
2018-09-17T07:14:08.700Z,99071.70
2018-09-17T07:16:37.263Z,99075.28
2018-09-17T07:19:05.957Z,99065.27
2018-09-17T07:21:34.390Z,99068.11
2018-09-17T07:24:02.872Z,99064.22
2018-09-17T07:26:31.449Z,99066.38
2018-09-17T07:29:00.834Z,99059.91
2018-09-17T07:31:29.530Z,99063.21
2018-09-17T07:33:58.230Z,99061.64
2018-09-17T07:36:26.902Z,99066.11
2018-09-17T07:38:55.330Z,99059.44
2018-09-17T07:41:23.785Z,99057.29
2018-09-17T07:43:52.366Z,99053.09
2018-09-17T07:46:21.053Z,99038.76
2018-09-17T07:48:49.430Z,99040.27
2018-09-17T07:51:18.053Z,99041.71
2018-09-17T07:53:46.510Z,99033.60
2018-09-17T07:56:14.997Z,99031.22
2018-09-17T07:58:43.612Z,99028.33
2018-09-17T08:01:12.148Z,99030.35
2018-09-17T08:03:40.608Z,99031.34
2018-09-17T08:06:09.106Z,99028.45
2018-09-17T08:08:37.561Z,99032.83
2018-09-17T08:11:06.078Z,99029.92
2018-09-17T08:13:34.529Z,99037.86
2018-09-17T08:16:03.001Z,99029.32
2018-09-17T08:18:31.504Z,99034.03
2018-09-17T08:20:59.999Z,99027.86
2018-09-17T08:23:28.554Z,99030.19
2018-09-17T08:25:57.046Z,99022.65
2018-09-17T08:28:25.534Z,99023.96
2018-09-17T08:30:53.994Z,99019.64
2018-09-17T08:33:22.486Z,99015.59
2018-09-17T08:35:51.018Z,99012.11
2018-09-17T08:38:19.519Z,99018.44
2018-09-17T08:40:48.149Z,99018.43
2018-09-17T08:43:16.621Z,99013.48
2018-09-17T08:45:45.087Z,99009.59
2018-09-17T08:48:13.590Z,99013.94
2018-09-17T08:50:42.461Z,99019.88
2018-09-17T08:53:11.043Z,99018.37
2018-09-17T08:55:46.990Z,99016.70
2018-09-17T08:58:20.617Z,99014.94
2018-09-17T09:00:54.127Z,99007.03
2018-09-17T09:03:31.729Z,99006.03
2018-09-17T09:06:05.735Z,99005.60
2018-09-17T09:08:34.234Z,98998.88
2018-09-17T09:11:07.993Z,99000.15
2018-09-17T09:13:41.757Z,98999.94
2018-09-17T09:16:10.270Z,98992.97
2018-09-17T09:18:38.698Z,98989.39
2018-09-17T09:21:07.174Z,98977.17
2018-09-17T09:23:35.698Z,98984.48
2018-09-17T09:26:04.246Z,98987.63
2018-09-17T09:28:32.718Z,98986.63
2018-09-17T09:31:01.408Z,98988.86
2018-09-17T09:33:29.885Z,98983.20
2018-09-17T09:35:58.319Z,98977.96
2018-09-17T09:38:26.862Z,98979.05
2018-09-17T09:40:55.409Z,98974.61
2018-09-17T09:43:23.966Z,98971.47
2018-09-17T09:45:52.513Z,98968.73
2018-09-17T09:48:20.982Z,98970.02
2018-09-17T09:50:49.486Z,98966.05
2018-09-17T09:53:18.048Z,98968.59
2018-09-17T09:55:46.553Z,98963.36
2018-09-17T09:58:15.008Z,98969.44
2018-09-17T10:00:48.602Z,98963.59
2018-09-17T10:03:29.433Z,98968.05
2018-09-17T10:05:58.352Z,98960.31
2018-09-17T10:08:26.897Z,98958.19
2018-09-17T10:11:00.595Z,98951.70
2018-09-17T10:13:34.323Z,98945.44
2018-09-17T10:16:08.209Z,98948.66
2018-09-17T10:18:41.808Z,98939.14
2018-09-17T10:21:10.277Z,98946.12
2018-09-17T10:23:38.734Z,98937.14
2018-09-17T10:26:07.197Z,98930.84
2018-09-17T10:28:35.689Z,98926.95
2018-09-17T10:31:04.254Z,98928.77
2018-09-17T10:33:32.682Z,98925.63
2018-09-17T10:36:01.342Z,98921.34
2018-09-17T10:38:29.873Z,98915.77
2018-09-17T10:40:58.364Z,98912.80
2018-09-17T10:43:27.077Z,98904.41
2018-09-17T10:45:55.597Z,98912.58
2018-09-17T10:48:24.134Z,98901.50
2018-09-17T10:50:52.730Z,98898.42
2018-09-17T10:53:21.277Z,98902.71
2018-09-17T10:55:49.753Z,98894.70
2018-09-17T10:58:18.226Z,98894.41
2018-09-17T11:00:46.681Z,98897.96
2018-09-17T11:03:15.317Z,98897.18
2018-09-17T11:05:43.901Z,98893.86
2018-09-17T11:08:12.440Z,98897.88
2018-09-17T11:10:40.968Z,98894.27
2018-09-17T11:13:09.427Z,98893.73
2018-09-17T11:15:43.109Z,98887.67
2018-09-17T11:18:11.735Z,98890.25
2018-09-17T11:20:40.294Z,98885.12
2018-09-17T11:23:08.802Z,98886.06
2018-09-17T11:25:37.284Z,98887.94
2018-09-17T11:28:05.953Z,98882.17
2018-09-17T11:30:34.596Z,98881.25
2018-09-17T11:33:03.151Z,98881.52
2018-09-17T11:35:31.857Z,98873.30
2018-09-17T11:38:00.541Z,98870.28
2018-09-17T11:40:29.093Z,98866.52
2018-09-17T11:42:57.533Z,98858.83
2018-09-17T11:45:26.109Z,98858.03
2018-09-17T11:47:54.590Z,98853.38
2018-09-17T11:50:23.098Z,98854.97
2018-09-17T11:52:51.644Z,98856.20
2018-09-17T11:55:20.122Z,98853.04
2018-09-17T11:57:48.644Z,98851.77
2018-09-17T12:00:22.323Z,98853.70
2018-09-17T12:02:56.046Z,98848.38
2018-09-17T12:05:29.790Z,98851.70
2018-09-17T12:07:58.266Z,98854.12
2018-09-17T12:10:26.799Z,98844.88
2018-09-17T12:12:55.284Z,98839.37
2018-09-17T12:15:23.757Z,98841.32
2018-09-17T12:17:52.246Z,98836.74
2018-09-17T12:20:20.697Z,98830.30
2018-09-17T12:22:49.202Z,98830.16
2018-09-17T12:25:17.670Z,98821.31
2018-09-17T12:27:46.129Z,98825.00
2018-09-17T12:30:14.526Z,98826.28
2018-09-17T12:32:43.042Z,98818.89
2018-09-17T12:35:11.506Z,98817.12
2018-09-17T12:37:40.116Z,98810.33
2018-09-17T12:40:08.554Z,98813.86
2018-09-17T12:42:37.069Z,98804.20
2018-09-17T12:45:05.986Z,98806.91
2018-09-17T12:47:34.476Z,98799.75
2018-09-17T12:50:02.897Z,98806.16
2018-09-17T12:52:31.390Z,98798.34
2018-09-17T12:55:00.034Z,98791.56
2018-09-17T12:57:28.527Z,98794.55
2018-09-17T12:59:57.109Z,98788.66
2018-09-17T13:02:25.676Z,98783.70
2018-09-17T13:04:54.154Z,98781.89
2018-09-17T13:07:22.630Z,98775.58
2018-09-17T13:09:51.145Z,98769.44
2018-09-17T13:12:19.797Z,98773.16
2018-09-17T13:14:48.290Z,98767.93
2018-09-17T13:17:16.725Z,98763.03
2018-09-17T13:19:45.177Z,98758.91
2018-09-17T13:22:13.681Z,98758.74
2018-09-17T13:24:42.152Z,98754.79
2018-09-17T13:27:10.650Z,98752.18
2018-09-17T13:29:39.241Z,98751.47
2018-09-17T13:32:07.864Z,98740.28
2018-09-17T13:34:36.167Z,98746.59
2018-09-17T13:37:04.769Z,98745.71
2018-09-17T13:39:33.270Z,98732.14
2018-09-17T13:42:01.933Z,98726.50
2018-09-17T13:44:30.500Z,98725.03
2018-09-17T13:46:59.053Z,98718.26
2018-09-17T13:49:27.557Z,98718.18
2018-09-17T13:51:56.439Z,98716.39
2018-09-17T13:54:24.915Z,98713.20
2018-09-17T13:56:53.611Z,98714.34
2018-09-17T13:59:22.083Z,98714.61
2018-09-17T14:01:50.670Z,98711.48
2018-09-17T14:04:19.179Z,98705.31
2018-09-17T14:06:47.565Z,98702.06
2018-09-17T14:09:16.087Z,98694.50
2018-09-17T14:11:44.588Z,98696.25
2018-09-17T14:14:13.030Z,98693.50
2018-09-17T14:16:41.488Z,98689.92
2018-09-17T14:19:10.019Z,98692.06
2018-09-17T14:21:38.486Z,98683.50
2018-09-17T14:24:07.047Z,98676.74
2018-09-17T14:26:35.600Z,98678.27
2018-09-17T14:29:04.142Z,98669.48
2018-09-17T14:31:37.878Z,98669.90
2018-09-17T14:34:06.336Z,98662.83
2018-09-17T14:36:34.777Z,98659.05
2018-09-17T14:39:03.395Z,98659.11
2018-09-17T14:41:31.839Z,98652.87
2018-09-17T14:44:00.879Z,98648.45
2018-09-17T14:46:29.667Z,98650.42
2018-09-17T14:48:58.079Z,98650.66
2018-09-17T14:51:26.578Z,98640.09
2018-09-17T14:53:55.224Z,98635.02
2018-09-17T14:56:23.693Z,98634.90
2018-09-17T14:58:52.220Z,98630.55
2018-09-17T15:01:20.824Z,98629.81
2018-09-17T15:03:49.216Z,98626.27
2018-09-17T15:06:17.746Z,98623.02
2018-09-17T15:08:46.234Z,98624.30
2018-09-17T15:11:14.725Z,98612.87
2018-09-17T15:13:43.987Z,98613.05
2018-09-17T15:16:12.478Z,98606.18
2018-09-17T15:18:40.917Z,98606.42
2018-09-17T15:21:09.386Z,98599.50
2018-09-17T15:23:37.926Z,98604.22
2018-09-17T15:26:06.447Z,98596.17
2018-09-17T15:28:34.936Z,98598.23
2018-09-17T15:31:03.513Z,98594.61
2018-09-17T15:33:31.936Z,98593.86
2018-09-17T15:36:00.518Z,98596.38
2018-09-17T15:38:29.086Z,98588.28
2018-09-17T15:40:57.602Z,98587.58
2018-09-17T15:43:25.993Z,98590.00
2018-09-17T15:45:54.546Z,98585.59
2018-09-17T15:48:23.008Z,98583.27
2018-09-17T15:50:51.506Z,98581.47
2018-09-17T15:53:20.120Z,98582.07
2018-09-17T15:55:48.593Z,98577.41
2018-09-17T15:58:17.134Z,98579.62
2018-09-17T16:00:45.643Z,98577.55
2018-09-17T16:03:14.069Z,98568.89
2018-09-17T16:05:42.718Z,98576.70
2018-09-17T16:08:11.183Z,98573.48
2018-09-17T16:10:39.657Z,98577.28
2018-09-17T16:13:08.113Z,98570.00
2018-09-17T16:15:36.924Z,98575.02
2018-09-17T16:18:05.455Z,98573.80
2018-09-17T16:20:34.033Z,98570.19
2018-09-17T16:23:02.612Z,98568.81
2018-09-17T16:25:31.119Z,98565.20
2018-09-17T16:27:59.819Z,98568.19
2018-09-17T16:30:28.321Z,98568.09
2018-09-17T16:32:56.807Z,98571.87
2018-09-17T16:35:25.340Z,98570.54
2018-09-17T16:37:53.781Z,98566.23
2018-09-17T16:40:22.873Z,98563.36
2018-09-17T16:42:51.389Z,98569.91
2018-09-17T16:45:19.818Z,98558.13
2018-09-17T16:47:48.377Z,98562.03
2018-09-17T16:50:16.908Z,98561.72
2018-09-17T16:52:45.428Z,98561.84
2018-09-17T16:55:13.823Z,98555.59
2018-09-17T16:57:42.338Z,98547.50
2018-09-17T17:00:10.851Z,98552.31
2018-09-17T17:02:39.402Z,98547.09
2018-09-17T17:05:07.894Z,98548.77
2018-09-17T17:07:36.370Z,98548.49
2018-09-17T17:10:05.052Z,98547.73
2018-09-17T17:12:33.538Z,98545.42
2018-09-17T17:15:02.271Z,98547.99
2018-09-17T17:17:30.720Z,98554.70
2018-09-17T17:19:59.306Z,98545.30
2018-09-17T17:22:27.866Z,98554.41
2018-09-17T17:24:56.346Z,98547.84
2018-09-17T17:27:25.142Z,98550.50
2018-09-17T17:29:53.650Z,98542.28
2018-09-17T17:32:22.148Z,98544.32
2018-09-17T17:34:50.558Z,98540.36
2018-09-17T17:37:19.013Z,98541.00
2018-09-17T17:39:47.672Z,98538.86
2018-09-17T17:42:16.030Z,98544.48
2018-09-17T17:44:44.551Z,98541.52
2018-09-17T17:47:13.021Z,98544.41
2018-09-17T17:49:41.582Z,98540.55
2018-09-17T17:52:10.067Z,98543.58
2018-09-17T17:54:38.686Z,98548.61
2018-09-17T17:57:07.141Z,98544.81
2018-09-17T17:59:35.722Z,98550.94
2018-09-17T18:02:04.201Z,98540.56
2018-09-17T18:04:32.657Z,98545.54
2018-09-17T18:07:01.484Z,98543.05
2018-09-17T18:09:30.145Z,98556.07
2018-09-17T18:11:58.592Z,98550.61
2018-09-17T18:14:27.123Z,98552.11
2018-09-17T18:16:55.838Z,98559.56
2018-09-17T18:19:24.261Z,98561.16
2018-09-17T18:21:52.883Z,98566.29
2018-09-17T18:24:21.328Z,98567.02
2018-09-17T18:26:49.810Z,98559.05
2018-09-17T18:29:18.298Z,98561.91
2018-09-17T18:31:46.768Z,98564.30
2018-09-17T18:34:15.265Z,98556.30
2018-09-17T18:36:43.793Z,98560.11
2018-09-17T18:39:12.404Z,98564.62
2018-09-17T18:41:40.790Z,98562.41
2018-09-17T18:44:09.294Z,98564.21
2018-09-17T18:46:37.785Z,98570.41
2018-09-17T18:49:06.306Z,98568.53
2018-09-17T18:51:34.710Z,98573.32
2018-09-17T18:54:03.258Z,98574.66
2018-09-17T18:56:31.751Z,98580.72
2018-09-17T18:59:00.466Z,98579.33
2018-09-17T19:01:29.169Z,98582.30
2018-09-17T19:03:57.722Z,98582.38
2018-09-17T19:06:26.117Z,98585.74
2018-09-17T19:08:54.643Z,98587.17
2018-09-17T19:11:23.184Z,98588.80
2018-09-17T19:13:57.010Z,98587.17
2018-09-17T19:16:30.851Z,98588.47
2018-09-17T19:18:59.452Z,98584.27
2018-09-17T19:21:33.178Z,98580.89
2018-09-17T19:24:02.845Z,98581.98
2018-09-17T19:26:31.364Z,98570.55
2018-09-17T19:29:05.359Z,98573.47
2018-09-17T19:31:33.801Z,98571.47
2018-09-17T19:34:02.428Z,98570.17
2018-09-17T19:36:30.944Z,98569.75
2018-09-17T19:39:04.821Z,98575.17
2018-09-17T19:41:33.405Z,98578.92
2018-09-17T19:44:02.093Z,98577.78
2018-09-17T19:46:30.589Z,98579.73
2018-09-17T19:48:59.146Z,98574.53
2018-09-17T19:51:32.810Z,98584.82
2018-09-17T19:54:01.622Z,98581.17
2018-09-17T19:56:30.108Z,98582.42
2018-09-17T19:59:03.933Z,98583.89
2018-09-17T20:01:32.381Z,98585.33
2018-09-17T20:04:06.439Z,98589.02
2018-09-17T20:06:34.948Z,98586.27
2018-09-17T20:09:03.513Z,98588.39
2018-09-17T20:11:32.042Z,98579.61
2018-09-17T20:14:00.719Z,98579.80
2018-09-17T20:16:29.334Z,98582.30
2018-09-17T20:18:57.896Z,98573.09
2018-09-17T20:21:26.423Z,98576.03
2018-09-17T20:23:54.959Z,98575.44
2018-09-17T20:26:23.941Z,98575.78
2018-09-17T20:28:52.440Z,98579.20
2018-09-17T20:31:20.930Z,98572.16
2018-09-17T20:33:49.383Z,98578.95
2018-09-17T20:36:23.508Z,98573.70
2018-09-17T20:38:51.995Z,98582.45
2018-09-17T20:41:20.453Z,98577.16
2018-09-17T20:43:49.084Z,98582.84
2018-09-17T20:46:17.565Z,98581.21
2018-09-17T20:48:46.031Z,98583.69
2018-09-17T20:51:14.465Z,98583.39
2018-09-17T20:53:42.962Z,98588.91
2018-09-17T20:56:11.530Z,98584.40
2018-09-17T20:58:39.921Z,98588.73
2018-09-17T21:01:08.790Z,98587.66
2018-09-17T21:03:37.166Z,98588.12
2018-09-17T21:06:05.689Z,98593.88
2018-09-17T21:08:34.186Z,98592.11
2018-09-17T21:11:02.785Z,98588.81
2018-09-17T21:13:31.340Z,98596.45
2018-09-17T21:16:00.018Z,98589.59
2018-09-17T21:18:28.561Z,98594.56
2018-09-17T21:20:57.096Z,98595.53
2018-09-17T21:23:25.534Z,98585.97
2018-09-17T21:25:54.127Z,98583.44
2018-09-17T21:28:22.587Z,98580.34
2018-09-17T21:30:51.088Z,98568.78
2018-09-17T21:33:19.461Z,98572.16
2018-09-17T21:35:47.958Z,98568.00
2018-09-17T21:38:16.418Z,98565.63
2018-09-17T21:40:44.998Z,98569.05
2018-09-17T21:43:13.455Z,98570.02
2018-09-17T21:45:41.971Z,98572.99
2018-09-17T21:48:10.469Z,98572.52
2018-09-17T21:50:38.957Z,98563.22
2018-09-17T21:53:07.758Z,98575.31
2018-09-17T21:55:36.254Z,98565.28
2018-09-17T21:58:04.958Z,98570.84
2018-09-17T22:00:38.664Z,98566.05
2018-09-17T22:03:07.078Z,98568.83
2018-09-17T22:05:35.578Z,98570.42
2018-09-17T22:08:04.045Z,98568.64
2018-09-17T22:10:32.665Z,98567.07
2018-09-17T22:13:01.514Z,98573.28
2018-09-17T22:15:30.522Z,98564.78
2018-09-17T22:17:59.050Z,98567.16
2018-09-17T22:20:27.713Z,98562.55
2018-09-17T22:22:56.154Z,98556.00
2018-09-17T22:25:24.649Z,98569.31
2018-09-17T22:27:53.138Z,98571.89
2018-09-17T22:30:21.618Z,98571.41
2018-09-17T22:32:50.106Z,98574.57
2018-09-17T22:35:18.548Z,98570.52
2018-09-17T22:37:47.014Z,98573.70
2018-09-17T22:40:15.542Z,98566.08
2018-09-17T22:42:44.235Z,98569.02
2018-09-17T22:45:12.705Z,98568.58
2018-09-17T22:47:41.288Z,98570.03
2018-09-17T22:50:09.773Z,98565.97
2018-09-17T22:52:38.277Z,98576.50
2018-09-17T22:55:06.830Z,98575.27
2018-09-17T22:57:36.392Z,98576.16
2018-09-17T23:00:08.108Z,98575.13
2018-09-17T23:02:39.148Z,98567.66
2018-09-17T23:05:11.125Z,98565.87
2018-09-17T23:07:40.479Z,98564.44
2018-09-17T23:10:09.817Z,98570.02
2018-09-17T23:12:38.314Z,98573.02
2018-09-17T23:15:08.093Z,98576.13
2018-09-17T23:17:36.604Z,98575.11
2018-09-17T23:20:05.225Z,98580.46
2018-09-17T23:22:33.685Z,98577.83
2018-09-17T23:25:02.290Z,98578.95
2018-09-17T23:27:30.965Z,98580.32
2018-09-17T23:29:59.403Z,98580.75
2018-09-17T23:32:27.956Z,98576.84
2018-09-17T23:34:56.354Z,98573.88
2018-09-17T23:37:24.870Z,98576.77
2018-09-17T23:39:53.334Z,98575.44
2018-09-17T23:42:21.824Z,98571.53
2018-09-17T23:44:50.293Z,98569.00
2018-09-17T23:47:18.815Z,98573.05
2018-09-17T23:49:47.245Z,98572.22
2018-09-17T23:52:15.739Z,98567.83
2018-09-17T23:54:44.225Z,98568.18
2018-09-17T23:57:12.697Z,98563.45
2018-09-17T23:59:41.202Z,98564.81
